Time;durP1;ratioP1;P1;durP2;ratioP2;P2;SDS_P1;SDS_P2;PMS_P1;PMS_P2;Temp;Humidity;BMP_temperature;BMP_pressure;BME280_temperature;BME280_humidity;BME280_pressure;Samples;Min_cycle;Max_cycle;Signal;HPM_P1;HPM_P2
2022/05/18 00:00:48;;;;;;;2.70;2.17;;;22.10;58.40;;;-142.21;86.84;112049.66;5086870;28;20587;-71
2022/05/18 00:03:18;;;;;;;2.60;2.40;;;22.10;58.40;;;-142.21;86.79;112049.66;5081332;28;20224;-71
2022/05/18 00:05:46;;;;;;;4.70;2.20;;;22.10;58.40;;;-142.21;87.11;112049.66;5084458;28;20186;-71
2022/05/18 00:08:14;;;;;;;3.43;2.50;;;22.10;58.50;;;-142.21;87.10;112049.66;5074370;28;20216;-71
2022/05/18 00:10:45;;;;;;;2.67;2.47;;;22.10;58.60;;;-142.21;86.97;112049.66;5091211;28;20215;-71
2022/05/18 00:13:14;;;;;;;2.30;2.10;;;22.00;58.50;;;-142.21;86.47;112049.66;5075752;28;20204;-71
2022/05/18 00:15:43;;;;;;;4.73;2.60;;;22.10;58.30;;;-142.21;86.74;112049.66;5080333;28;20197;-71
2022/05/18 00:18:10;;;;;;;2.63;2.20;;;22.10;58.40;;;-142.21;86.86;112049.66;5085413;28;20208;-71
2022/05/18 00:20:38;;;;;;;3.43;2.40;;;22.00;58.90;;;-142.21;86.43;112049.66;5082810;28;20197;-71
2022/05/18 00:23:06;;;;;;;3.60;2.37;;;22.10;58.40;;;-142.21;87.03;112049.66;5080526;28;20224;-71
2022/05/18 00:25:36;;;;;;;2.93;2.50;;;22.00;58.50;;;-142.21;87.16;112049.66;5078842;28;20288;-71
2022/05/18 00:28:04;;;;;;;2.53;2.33;;;22.00;59.10;;;-142.21;87.33;112049.66;5073473;28;20205;-71
2022/05/18 00:30:34;;;;;;;2.30;2.10;;;22.00;58.50;;;-142.21;87.26;112049.66;5077524;28;20576;-71
2022/05/18 00:33:04;;;;;;;2.93;2.33;;;22.00;59.10;;;-142.21;87.51;112049.66;5076582;28;20196;-71
2022/05/18 00:35:34;;;;;;;4.30;2.10;;;22.00;59.20;;;-142.21;87.93;112049.66;5087006;28;20204;-71
2022/05/18 00:38:01;;;;;;;3.87;2.17;;;21.90;58.70;;;-142.21;87.43;112049.66;5085395;28;20664;-71
2022/05/18 00:40:30;;;;;;;2.60;2.30;;;21.90;58.50;;;-142.21;88.38;112049.66;5073481;28;20232;-71
2022/05/18 00:42:57;;;;;;;2.37;2.17;;;21.90;58.70;;;-142.21;87.24;112049.66;5073331;28;20236;-70
2022/05/18 00:45:26;;;;;;;2.73;2.27;;;21.90;58.50;;;-142.21;87.16;112049.66;5039632;28;20196;-71
2022/05/18 00:47:55;;;;;;;2.37;2.17;;;21.90;58.50;;;-142.21;86.82;112049.66;5073421;28;20580;-71
2022/05/18 00:50:30;;;;;;;2.50;2.30;;;21.90;58.40;;;-142.21;87.04;112049.66;5084467;28;20203;-71
2022/05/18 00:53:05;;;;;;;3.63;2.27;;;21.90;58.50;;;-142.21;86.67;112049.66;5072943;28;20633;-71
2022/05/18 00:55:40;;;;;;;5.17;2.57;;;21.90;58.40;;;-142.21;86.88;112049.66;5085434;28;20195;-71
2022/05/18 00:58:16;;;;;;;2.93;2.30;;;22.00;58.50;;;-142.21;86.50;112049.66;5073555;28;20196;-71
2022/05/18 01:00:45;;;;;;;2.60;2.27;;;21.90;58.30;;;-142.21;86.43;112049.66;5092151;28;20196;-71
2022/05/18 01:03:21;;;;;;;3.37;2.20;;;22.00;58.40;;;-142.21;86.70;112049.66;5091897;28;20235;-71
2022/05/18 01:05:54;;;;;;;4.07;2.23;;;22.00;58.50;;;-142.21;86.82;112049.66;5084724;28;20184;-71
2022/05/18 01:08:36;;;;;;;3.20;2.50;;;21.90;58.50;;;-142.21;87.24;112049.66;5085363;28;20189;-71
2022/05/18 01:11:04;;;;;;;4.57;2.53;;;21.90;58.80;;;-142.21;87.67;112049.66;5079621;28;20196;-71
2022/05/18 01:13:31;;;;;;;3.90;2.60;;;21.90;58.70;;;-142.21;87.93;112049.66;5091790;28;20196;-71
2022/05/18 01:15:59;;;;;;;6.63;2.63;;;21.90;58.80;;;-142.21;87.84;112049.66;5085533;28;20581;-71
2022/05/18 01:18:28;;;;;;;3.37;2.70;;;21.80;59.00;;;-142.21;88.08;112049.66;5086054;28;20258;-71
2022/05/18 01:20:56;;;;;;;2.73;2.50;;;21.80;59.00;;;-142.21;88.35;112049.66;5079245;28;20193;-71
2022/05/18 01:23:44;;;;;;;3.33;2.70;;;21.80;59.00;;;-142.21;88.93;112049.66;5088691;28;20254;-71
2022/05/18 01:26:19;;;;;;;2.73;2.50;;;21.80;59.20;;;-142.21;88.87;112049.66;5073888;28;20208;-71
2022/05/18 01:28:54;;;;;;;4.70;2.57;;;21.70;59.30;;;-142.21;88.92;112049.66;5092209;28;20224;-71
2022/05/18 01:31:50;;;;;;;2.60;2.40;;;21.70;59.40;;;-142.21;89.58;112049.66;5058557;28;20288;-71
2022/05/18 01:34:20;;;;;;;4.27;2.53;;;21.60;59.70;;;-142.21;89.97;112049.66;5072398;28;20201;-71
2022/05/18 01:36:48;;;;;;;5.27;2.30;;;21.60;59.60;;;-142.21;90.19;112049.66;5073857;28;20190;-71
2022/05/18 01:39:23;;;;;;;2.60;2.23;;;21.60;59.70;;;-142.21;90.14;112049.66;5084716;28;20246;-71
2022/05/18 01:42:02;;;;;;;4.73;2.30;;;21.50;59.70;;;-142.21;90.55;112049.66;5076324;28;20193;-71
2022/05/18 01:44:31;;;;;;;2.93;2.50;;;21.50;59.80;;;-142.21;90.47;112049.66;5052530;28;20213;-71
2022/05/18 01:46:58;;;;;;;3.23;2.67;;;21.50;59.80;;;-142.21;90.60;112049.66;5076280;28;20654;-71
2022/05/18 01:49:25;;;;;;;2.43;2.20;;;21.50;59.70;;;-142.21;90.04;112049.66;5092663;28;20200;-72
2022/05/18 01:51:57;;;;;;;4.33;2.60;;;21.50;59.60;;;-142.21;90.45;112049.66;5073273;28;20288;-71
2022/05/18 01:54:24;;;;;;;2.63;2.40;;;21.50;59.80;;;-142.21;90.71;112049.66;5075502;28;20280;-71
2022/05/18 01:56:51;;;;;;;4.50;2.30;;;21.50;59.90;;;-142.21;90.37;112049.66;5078835;28;20255;-71
2022/05/18 01:59:18;;;;;;;3.60;2.70;;;21.40;59.70;;;-142.21;90.08;112049.66;5087475;28;20207;-71
2022/05/18 02:01:48;;;;;;;3.10;2.80;;;21.40;59.60;;;-142.21;89.99;112049.66;5090525;28;20568;-71
2022/05/18 02:04:16;;;;;;;3.87;2.77;;;21.40;59.70;;;-142.21;89.95;112049.66;5091180;28;20565;-71
2022/05/18 02:06:43;;;;;;;2.40;2.20;;;21.40;59.60;;;-142.21;90.43;112049.66;5082819;28;20207;-71
2022/05/18 02:09:10;;;;;;;3.20;2.30;;;21.40;59.80;;;-142.21;91.10;112049.66;5087144;28;20287;-71
2022/05/18 02:11:37;;;;;;;2.70;2.33;;;21.30;60.00;;;-142.21;91.69;112049.66;5076024;28;20270;-71
2022/05/18 02:14:05;;;;;;;2.83;2.60;;;21.30;60.00;;;-142.21;92.27;112049.66;5086455;28;20200;-71
2022/05/18 02:16:32;;;;;;;3.23;2.50;;;21.20;60.30;;;-142.21;91.74;112049.66;5078757;28;20204;-71
2022/05/18 02:19:00;;;;;;;3.50;2.80;;;21.20;60.10;;;-142.21;91.32;112049.66;5083448;28;20722;-71
2022/05/18 02:21:27;;;;;;;4.07;2.87;;;21.10;60.00;;;-142.21;91.19;112049.66;5055427;28;20197;-71
2022/05/18 02:23:54;;;;;;;3.00;2.53;;;21.20;60.10;;;-142.21;90.70;112049.66;5071398;28;20247;-71
2022/05/18 02:26:21;;;;;;;3.03;2.73;;;21.20;60.00;;;-142.21;90.73;112049.66;5075984;28;20291;-71
2022/05/18 02:28:49;;;;;;;2.50;2.27;;;21.20;60.00;;;-142.21;90.79;112049.66;5070427;28;20299;-71
2022/05/18 02:31:17;;;;;;;4.30;2.23;;;21.20;60.00;;;-142.21;91.19;112049.66;5072059;28;20213;-71
2022/05/18 02:33:44;;;;;;;3.37;2.60;;;21.20;60.00;;;-142.21;91.18;112049.66;5081487;28;20197;-71
2022/05/18 02:36:13;;;;;;;4.13;2.53;;;21.20;60.20;;;-142.21;91.77;112049.66;5072808;28;20555;-71
2022/05/18 02:38:42;;;;;;;2.47;2.27;;;21.20;60.30;;;-142.21;92.08;112049.66;5081993;28;20699;-71
2022/05/18 02:41:10;;;;;;;2.70;2.30;;;21.10;60.40;;;-142.21;92.12;112049.66;5091823;28;20207;-71
2022/05/18 02:43:38;;;;;;;3.07;2.77;;;21.10;60.70;;;-142.21;92.11;112049.66;5082051;28;20703;-71
2022/05/18 02:46:09;;;;;;;3.33;2.63;;;21.00;60.70;;;-142.21;92.34;112049.66;5071054;28;20254;-71
2022/05/18 02:48:37;;;;;;;2.83;2.47;;;21.00;60.90;;;-142.21;92.65;112049.66;5084658;28;20693;-71
2022/05/18 02:51:06;;;;;;;4.33;2.80;;;20.90;60.90;;;-142.21;92.58;112049.66;5090969;28;20240;-71
2022/05/18 02:53:35;;;;;;;2.90;2.37;;;20.90;60.90;;;-142.21;92.61;112049.66;5075983;28;20240;-71
2022/05/18 02:56:06;;;;;;;2.60;2.40;;;20.90;61.10;;;-142.21;92.75;112049.66;5081839;28;20204;-71
2022/05/18 02:58:36;;;;;;;3.10;2.40;;;20.80;61.00;;;-142.21;93.02;112049.66;5083072;28;20235;-71
2022/05/18 03:01:07;;;;;;;2.50;2.30;;;20.80;61.00;;;-142.21;93.01;112049.66;5071193;28;20193;-70
2022/05/18 03:03:35;;;;;;;2.70;2.50;;;20.80;61.20;;;-142.21;93.25;112049.66;5086808;28;20641;-71
2022/05/18 03:06:03;;;;;;;2.60;2.40;;;20.80;61.30;;;-142.21;93.07;112049.66;5075850;28;20210;-71
2022/05/18 03:08:31;;;;;;;2.67;2.47;;;20.80;61.50;;;-142.21;93.65;112049.66;5090200;28;20279;-71
2022/05/18 03:11:00;;;;;;;8.13;3.13;;;20.70;61.50;;;-142.21;93.52;112049.66;5079400;28;20288;-70
2022/05/18 03:13:29;;;;;;;3.07;2.63;;;20.70;61.50;;;-142.21;93.71;112049.66;5082982;28;20569;-70
2022/05/18 03:15:56;;;;;;;3.97;2.93;;;20.70;61.60;;;-142.21;93.90;112049.66;5090985;28;20552;-70
2022/05/18 03:18:25;;;;;;;3.33;2.97;;;20.60;61.50;;;-142.21;93.95;112049.66;5087515;28;20657;-71
2022/05/18 03:23:37;;;;;;;2.77;2.57;;;20.60;62.00;;;-142.21;94.85;112049.66;5089818;28;20319;-70
2022/05/18 03:26:11;;;;;;;4.73;3.03;;;20.50;62.10;;;-142.21;95.23;112049.66;5063949;28;20205;-70
2022/05/18 03:28:39;;;;;;;4.20;2.70;;;20.50;62.60;;;-142.21;95.62;112049.66;5079335;28;20250;-71
2022/05/18 03:31:07;;;;;;;2.70;2.50;;;20.50;62.70;;;-142.21;95.93;112049.66;5078504;28;20209;-70
2022/05/18 03:33:36;;;;;;;3.20;2.80;;;20.40;62.60;;;-142.21;95.91;112049.66;5074790;28;20204;-71
2022/05/18 03:36:05;;;;;;;3.73;2.70;;;20.40;62.60;;;-142.21;96.34;112049.66;5089458;28;20205;-71
2022/05/18 03:38:33;;;;;;;2.80;2.33;;;20.40;62.80;;;-142.21;95.93;112049.66;5089647;28;20200;-71
2022/05/18 03:41:00;;;;;;;3.40;2.47;;;20.40;62.60;;;-142.21;95.82;112049.66;5091037;28;20218;-71
2022/05/18 03:43:29;;;;;;;4.53;2.40;;;20.40;62.60;;;-142.21;96.17;112049.66;5088153;28;20221;-71
2022/05/18 03:45:56;;;;;;;3.30;2.67;;;20.40;62.80;;;-142.21;95.65;112049.66;5074267;28;20650;-71
2022/05/18 03:48:23;;;;;;;5.23;2.90;;;20.30;62.60;;;-142.21;95.73;112049.66;5084996;28;20296;-71
2022/05/18 03:50:51;;;;;;;3.47;2.70;;;20.30;62.60;;;-142.21;95.77;112049.66;5074202;28;20628;-71
2022/05/18 03:53:18;;;;;;;6.07;2.63;;;20.30;62.80;;;-142.21;96.34;112049.66;5082092;28;20275;-71
2022/05/18 03:55:45;;;;;;;3.23;2.83;;;20.30;62.90;;;-142.21;96.38;112049.66;5093134;28;20279;-71
2022/05/18 03:58:14;;;;;;;3.00;2.40;;;20.30;63.00;;;-142.21;96.39;112049.66;5090359;28;20660;-71
2022/05/18 04:00:47;;;;;;;2.90;2.70;;;20.30;63.20;;;-142.21;96.26;112049.66;5074541;28;20288;-71
2022/05/18 04:03:16;;;;;;;3.97;2.70;;;20.20;63.20;;;-142.21;96.58;112049.66;5087537;28;20228;-71
2022/05/18 04:05:44;;;;;;;3.70;2.87;;;20.20;63.10;;;-142.21;96.77;112049.66;5074106;28;20225;-71
2022/05/18 04:08:12;;;;;;;3.27;2.70;;;20.20;63.30;;;-142.21;97.04;112049.66;5074841;28;20211;-71
2022/05/18 04:10:41;;;;;;;3.20;2.90;;;20.20;63.50;;;-142.21;97.27;112049.66;5078673;28;20284;-71
2022/05/18 04:13:12;;;;;;;3.20;2.30;;;20.10;63.70;;;-142.21;97.02;112049.66;5094104;28;20208;-71
2022/05/18 04:15:40;;;;;;;3.40;2.80;;;20.10;63.60;;;-142.21;97.08;112049.66;5086529;28;20197;-71
2022/05/18 04:18:09;;;;;;;3.13;2.70;;;20.20;63.60;;;-142.21;97.51;112049.66;5086231;28;20196;-71
2022/05/18 04:20:38;;;;;;;3.07;2.77;;;20.20;64.00;;;-142.21;97.85;112049.66;5093939;28;20675;-71
2022/05/18 04:23:06;;;;;;;2.47;2.27;;;20.10;63.80;;;-142.21;98.00;112049.66;5091405;28;20224;-71
2022/05/18 04:25:34;;;;;;;3.30;2.80;;;20.20;64.20;;;-142.21;97.81;112049.66;5085974;28;20250;-71
2022/05/18 04:28:01;;;;;;;5.03;2.70;;;20.20;63.90;;;-142.21;97.88;112049.66;5080595;28;20197;-71
2022/05/18 04:30:29;;;;;;;6.00;2.97;;;20.30;63.90;;;-142.21;98.14;112049.66;5073551;28;20657;-71
2022/05/18 04:32:58;;;;;;;2.90;2.70;;;20.30;64.10;;;-142.21;97.23;112049.66;5081701;28;20197;-71
2022/05/18 04:35:28;;;;;;;3.03;2.73;;;20.30;63.80;;;-142.21;97.76;112049.66;5087581;28;20257;-71
2022/05/18 04:37:56;;;;;;;5.10;3.50;;;20.30;64.10;;;-142.21;98.06;112049.66;5086597;28;20649;-72
2022/05/18 04:40:24;;;;;;;4.73;3.40;;;20.30;65.00;;;-142.21;98.85;112049.66;5092520;28;20197;-71
2022/05/18 04:42:52;;;;;;;6.77;3.83;;;20.30;64.60;;;-142.21;100.00;112049.66;5092898;28;20205;-71
2022/05/18 04:45:22;;;;;;;3.57;3.10;;;20.30;65.10;;;-142.21;99.92;112049.66;5078991;28;20221;-71
2022/05/18 04:47:51;;;;;;;5.87;3.50;;;20.30;65.20;;;-142.21;98.96;112049.66;5078685;28;20207;-70
2022/05/18 04:50:20;;;;;;;6.73;3.67;;;20.30;64.60;;;-142.21;100.00;112049.66;5084800;28;20590;-71
2022/05/18 04:52:49;;;;;;;4.23;3.27;;;20.40;65.20;;;-142.21;99.89;112049.66;5092729;28;20204;-71
2022/05/18 04:55:16;;;;;;;2.83;2.50;;;20.40;65.20;;;-142.21;100.00;112049.66;5076387;28;20288;-71
2022/05/18 04:57:44;;;;;;;2.80;2.60;;;20.40;65.20;;;-142.21;99.59;112049.66;5093669;28;20205;-71
2022/05/18 05:00:15;;;;;;;2.90;2.60;;;20.50;64.80;;;-142.21;98.43;112049.66;5090932;28;20208;-71
2022/05/18 05:02:42;;;;;;;4.03;2.60;;;20.50;64.40;;;-142.21;97.84;112049.66;5092559;28;20560;-71
2022/05/18 05:05:13;;;;;;;2.77;2.57;;;20.60;64.20;;;-142.21;98.35;112049.66;5083878;28;20287;-71
2022/05/18 05:07:40;;;;;;;2.87;2.43;;;20.70;64.40;;;-142.21;97.81;112049.66;5073149;28;20289;-71
2022/05/18 05:10:10;;;;;;;2.70;2.50;;;20.70;63.90;;;-142.21;96.23;112049.66;5074936;28;20208;-71
2022/05/18 05:12:37;;;;;;;2.70;2.50;;;20.80;63.30;;;-142.21;96.76;112049.66;5086393;28;20250;-70
2022/05/18 05:15:05;;;;;;;7.97;2.77;;;20.90;63.50;;;-142.21;96.66;112049.66;5086198;28;20280;-71
2022/05/18 05:17:33;;;;;;;3.83;2.80;;;20.90;63.10;;;-142.21;97.41;112049.66;5086732;28;20210;-71
2022/05/18 05:20:01;;;;;;;3.80;2.80;;;21.00;63.70;;;-142.21;97.63;112049.66;5073858;28;20197;-71
2022/05/18 05:22:28;;;;;;;2.83;2.53;;;21.00;63.90;;;-142.21;97.80;112049.66;5073533;28;20660;-70
2022/05/18 05:24:55;;;;;;;5.33;2.80;;;21.00;63.90;;;-142.21;97.38;112049.66;5079247;28;20248;-71
2022/05/18 05:27:24;;;;;;;4.83;2.97;;;21.10;63.60;;;-142.21;97.10;112049.66;5086822;28;20208;-73
2022/05/18 05:29:52;;;;;;;3.97;2.47;;;21.20;63.40;;;-142.21;96.77;112049.66;5072106;28;20227;-73
2022/05/18 05:32:19;;;;;;;4.37;3.00;;;21.30;63.50;;;-142.21;96.01;112049.66;5082336;28;20740;-72
2022/05/18 05:34:46;;;;;;;2.87;2.40;;;21.30;63.00;;;-142.21;96.10;112049.66;5089748;28;20193;-72
2022/05/18 05:37:13;;;;;;;3.93;2.80;;;21.40;63.10;;;-142.21;95.46;112049.66;5091411;28;20259;-72
2022/05/18 05:39:41;;;;;;;2.97;2.70;;;21.50;63.00;;;-142.21;94.72;112049.66;5091312;28;20212;-72
2022/05/18 05:42:09;;;;;;;3.80;3.00;;;21.50;62.50;;;-142.21;94.99;112049.66;5078945;28;20482;-72
2022/05/18 05:44:37;;;;;;;4.23;3.23;;;21.70;62.70;;;-142.21;94.91;112049.66;5074409;28;20270;-72
2022/05/18 05:47:05;;;;;;;3.20;2.50;;;21.70;62.50;;;-142.21;94.15;112049.66;5088984;28;20196;-71
2022/05/18 05:49:32;;;;;;;3.60;2.70;;;21.80;62.20;;;-142.21;93.00;112049.66;5076064;28;20205;-72
2022/05/18 05:51:59;;;;;;;2.50;2.20;;;22.00;61.60;;;-142.21;92.85;112049.66;5051455;28;20202;-71
2022/05/18 05:54:27;;;;;;;3.97;2.90;;;22.00;61.30;;;-142.21;92.39;112049.66;5068224;28;20193;-71
2022/05/18 05:56:54;;;;;;;3.00;2.50;;;22.10;61.00;;;-142.21;91.88;112049.66;5078577;28;20205;-71
2022/05/18 05:59:23;;;;;;;2.57;2.37;;;22.20;60.80;;;-142.21;92.37;112049.66;5090919;28;20204;-71
2022/05/18 06:01:51;;;;;;;3.40;2.67;;;22.30;60.90;;;-142.21;93.07;112049.66;5075929;28;20197;-71
2022/05/18 06:04:18;;;;;;;3.17;2.83;;;22.40;61.10;;;-142.21;93.83;112049.66;5087734;28;20684;-71
2022/05/18 06:06:45;;;;;;;4.53;2.73;;;22.50;61.40;;;-142.21;94.17;112049.66;5092205;28;20216;-72
2022/05/18 06:09:12;;;;;;;2.70;2.40;;;22.50;61.50;;;-142.21;94.70;112049.66;5074992;28;20211;-72
2022/05/18 06:11:40;;;;;;;4.17;2.80;;;22.60;61.80;;;-142.21;94.89;112049.66;5071750;28;20669;-71
2022/05/18 06:14:07;;;;;;;5.27;2.90;;;22.70;62.00;;;-142.21;94.20;112049.66;5071411;28;20293;-71
2022/05/18 06:16:34;;;;;;;5.70;2.73;;;22.80;61.80;;;-142.21;93.39;112049.66;5076149;28;20203;-71
2022/05/18 06:19:03;;;;;;;3.00;2.50;;;22.90;61.20;;;-142.21;92.87;112049.66;5071284;28;20205;-71
2022/05/18 06:21:30;;;;;;;2.80;2.50;;;22.90;61.00;;;-142.21;93.28;112049.66;5072011;28;20295;-71
2022/05/18 06:23:57;;;;;;;4.37;2.53;;;23.00;61.00;;;-142.21;92.04;112049.66;5071320;28;20307;-71
2022/05/18 06:26:27;;;;;;;2.80;2.50;;;23.10;60.70;;;-142.21;92.67;112049.66;5072022;28;20531;-71
2022/05/18 06:28:54;;;;;;;3.03;2.73;;;23.20;61.50;;;-142.21;91.42;112049.66;5075226;28;20720;-72
2022/05/18 06:31:22;;;;;;;3.47;2.60;;;23.30;60.20;;;-142.21;90.26;112049.66;5072125;28;20203;-72
2022/05/18 06:33:49;;;;;;;3.67;2.93;;;23.40;60.50;;;-142.21;89.58;112049.66;5071833;28;20225;-72
2022/05/18 06:36:18;;;;;;;2.73;2.43;;;23.50;59.40;;;-142.21;86.30;112049.66;5069828;28;20224;-72
2022/05/18 06:38:45;;;;;;;3.47;2.40;;;23.60;58.60;;;-142.21;83.92;112049.66;5070250;28;20690;-71
2022/05/18 06:41:24;;;;;;;4.10;2.57;;;23.60;57.70;;;-142.21;85.02;112049.66;5071060;28;20215;-71
2022/05/18 06:43:55;;;;;;;3.13;2.60;;;23.70;58.20;;;-142.21;86.27;112049.66;5071860;28;20195;-72
2022/05/18 06:46:24;;;;;;;2.50;2.30;;;23.80;58.40;;;-142.21;84.45;112049.66;5083389;28;20235;-72
2022/05/18 06:48:52;;;;;;;2.53;2.33;;;23.90;57.90;;;-142.21;83.64;112049.66;5091838;28;20215;-72
2022/05/18 06:51:24;;;;;;;3.23;2.70;;;24.00;57.50;;;-142.21;83.51;112049.66;5091187;28;20207;-72
2022/05/18 06:53:55;;;;;;;5.10;2.20;;;24.10;57.50;;;-142.21;85.65;112049.66;5075818;28;20228;-71
2022/05/18 06:56:25;;;;;;;3.50;2.93;;;24.30;58.00;;;-142.21;84.68;112049.66;5077094;28;20198;-71
2022/05/18 06:58:54;;;;;;;2.70;2.50;;;24.40;57.60;;;-142.21;85.41;112049.66;5092063;28;20196;-71
2022/05/18 07:01:23;;;;;;;2.60;2.40;;;24.50;57.70;;;-142.21;83.76;112049.66;5080796;28;20203;-71
2022/05/18 07:03:50;;;;;;;2.73;2.27;;;24.60;57.20;;;-142.21;80.50;112049.66;5091393;28;20239;-71
2022/05/18 07:06:24;;;;;;;2.63;2.40;;;24.70;56.30;;;-142.21;76.76;112049.66;5087311;28;20644;-71
2022/05/18 07:08:54;;;;;;;3.17;2.50;;;24.70;55.30;;;-142.21;77.89;112049.66;5072691;28;20232;-71
2022/05/18 07:11:23;;;;;;;3.00;2.70;;;24.90;55.70;;;-142.21;75.56;112049.66;5071987;28;20185;-71
2022/05/18 07:13:53;;;;;;;2.83;2.53;;;24.90;55.10;;;-142.21;73.34;112049.66;5071587;28;20208;-71
2022/05/18 07:16:21;;;;;;;2.50;2.30;;;25.00;54.30;;;-142.21;71.29;112049.66;5082067;28;20199;-72
2022/05/18 07:18:48;;;;;;;2.53;2.33;;;25.00;53.90;;;-142.21;71.01;112049.66;5095289;28;20209;-71
2022/05/18 07:21:17;;;;;;;3.37;2.43;;;25.10;54.70;;;-142.21;71.60;112049.66;5093359;28;20209;-73
2022/05/18 07:23:45;;;;;;;5.03;2.40;;;25.20;54.10;;;-142.21;74.52;112049.66;5094791;28;20291;-72
2022/05/18 07:26:14;;;;;;;2.60;2.40;;;25.40;54.80;;;-142.21;76.85;112049.66;5090460;28;20240;-72
2022/05/18 07:28:42;;;;;;;3.30;2.60;;;25.50;55.10;;;-142.21;72.45;112049.66;5095184;28;20252;-71
2022/05/18 07:31:10;;;;;;;3.10;2.57;;;25.70;54.60;;;-142.21;70.42;112049.66;5086787;28;20199;-73
2022/05/18 07:33:38;;;;;;;4.00;2.50;;;25.80;53.60;;;-142.21;75.51;112049.66;5095191;28;20312;-70
2022/05/18 07:36:06;;;;;;;3.57;2.37;;;25.90;54.60;;;-142.21;70.07;112049.66;5080479;28;20211;-72
2022/05/18 07:38:36;;;;;;;3.57;2.30;;;26.00;53.70;;;-142.21;67.35;112049.66;5074636;28;20204;-72
2022/05/18 07:41:04;;;;;;;2.77;2.57;;;26.10;52.80;;;-142.21;66.91;112049.66;5075312;28;20205;-72
2022/05/18 07:43:31;;;;;;;3.10;2.80;;;26.20;52.70;;;-142.21;60.15;112049.66;5093844;28;20386;-71
2022/05/18 07:45:59;;;;;;;3.50;2.40;;;26.20;50.50;;;-142.21;63.36;112049.66;5090430;28;20307;-72
2022/05/18 07:48:27;;;;;;;6.97;2.67;;;26.30;51.70;;;-142.21;62.67;112049.66;5095263;28;20295;-72
2022/05/18 07:50:54;;;;;;;3.97;2.70;;;26.40;51.50;;;-142.21;58.21;112049.66;5093125;28;20197;-72
2022/05/18 07:53:22;;;;;;;3.70;2.93;;;26.40;50.10;;;-142.21;62.36;112049.66;5076801;28;20201;-72
2022/05/18 07:55:49;;;;;;;2.83;2.60;;;26.50;51.10;;;-142.21;66.36;112049.66;5084036;28;20553;-72
2022/05/18 07:58:21;;;;;;;2.40;2.20;;;26.60;52.00;;;-142.21;68.69;112049.66;5088186;28;20287;-72
2022/05/18 08:00:48;;;;;;;3.00;2.60;;;26.80;52.50;;;-142.21;66.65;112049.66;5077216;28;20363;-72
2022/05/18 08:03:17;;;;;;;4.17;2.40;;;26.90;52.00;;;-142.21;61.20;112049.66;5078328;28;20200;-71
2022/05/18 08:05:47;;;;;;;3.60;2.40;;;27.00;51.10;;;-142.21;57.06;112049.66;5094015;28;20293;-71
2022/05/18 08:08:22;;;;;;;2.77;2.40;;;27.00;50.10;;;-142.21;55.16;112049.66;5090509;28;20300;-72
2022/05/18 08:16:20;;;;;;;3.27;2.60;;;27.20;49.10;;;-142.21;56.07;112049.66;5073462;28;20638;-71
2022/05/18 08:18:49;;;;;;;2.53;2.33;;;27.30;49.50;;;-142.21;62.36;112049.66;5075158;28;20230;-71
2022/05/18 08:21:17;;;;;;;3.13;2.37;;;27.40;50.50;;;-142.21;61.69;112049.66;5073598;28;20209;-71
2022/05/18 08:23:46;;;;;;;3.00;2.60;;;27.50;50.40;;;-142.21;55.09;112049.66;5082218;28;20209;-72
2022/05/18 08:26:14;;;;;;;2.40;2.20;;;27.60;49.00;;;-142.21;55.40;112049.66;5093240;28;20231;-71
2022/05/18 08:28:42;;;;;;;4.00;2.80;;;27.70;49.00;;;-142.21;62.32;112049.66;5092045;28;20630;-71
2022/05/18 08:31:10;;;;;;;2.63;2.43;;;27.80;51.20;;;-142.21;60.36;112049.66;5093221;28;20206;-71
2022/05/18 08:33:37;;;;;;;3.50;2.77;;;27.90;50.00;;;-142.21;55.39;112049.66;5088946;28;20650;-72
2022/05/18 08:36:08;;;;;;;5.43;2.60;;;28.00;48.80;;;-142.21;63.07;112049.66;5073239;28;20239;-71
2022/05/18 08:38:37;;;;;;;3.07;2.70;;;28.10;50.50;;;-142.21;60.88;112049.66;5084100;28;20190;-71
2022/05/18 08:41:13;;;;;;;2.60;2.40;;;28.20;50.10;;;-142.21;61.79;112049.66;5093584;28;20610;-71
2022/05/18 08:43:46;;;;;;;2.60;2.40;;;28.30;50.00;;;-142.21;61.96;112049.66;5089338;28;20195;-71
2022/05/18 08:46:18;;;;;;;5.60;2.40;;;28.50;50.20;;;-142.21;58.03;112049.66;5073481;28;20216;-71
2022/05/18 08:48:57;;;;;;;3.13;2.40;;;28.60;49.20;;;-142.21;57.52;112049.66;5075658;28;20286;-71
2022/05/18 08:51:45;;;;;;;5.23;2.80;;;28.60;48.90;;;-142.21;55.74;112049.66;5052997;28;20294;-70
2022/05/18 08:54:32;;;;;;;2.67;2.47;;;28.70;48.10;;;-142.21;57.84;112049.66;5077211;28;20191;-71
2022/05/18 08:57:05;;;;;;;2.97;2.40;;;28.80;48.80;;;-142.21;57.37;112049.66;5093788;28;20552;-72
2022/05/18 08:59:38;;;;;;;3.23;2.20;;;28.80;48.70;;;-142.21;60.61;112049.66;5091900;28;20195;-69
2022/05/18 09:02:17;;;;;;;2.57;2.37;;;28.90;49.40;;;-142.21;57.45;112049.66;5092614;28;20231;-70
2022/05/18 09:04:53;;;;;;;6.07;3.13;;;29.00;48.50;;;-142.21;51.40;112049.66;5086202;28;20275;-71
2022/05/18 09:07:27;;;;;;;3.53;2.60;;;29.00;46.90;;;-142.21;56.96;112049.66;5092760;28;20190;-71
2022/05/18 09:10:16;;;;;;;2.90;2.60;;;29.00;48.40;;;-142.21;59.42;112049.66;5091503;28;20282;-72
2022/05/18 09:12:46;;;;;;;3.43;2.77;;;29.10;49.10;;;-142.21;57.91;112049.66;5093433;28;20195;-71
2022/05/18 09:15:19;;;;;;;4.17;2.30;;;29.20;48.80;;;-142.21;56.11;112049.66;5072846;28;20219;-73
2022/05/18 09:17:55;;;;;;;3.00;2.63;;;29.20;48.30;;;-142.21;54.59;112049.66;5072591;28;20233;-72
2022/05/18 09:20:26;;;;;;;3.40;2.80;;;29.40;47.90;;;-142.21;53.84;112049.66;5090303;28;20213;-73
2022/05/18 09:23:25;;;;;;;3.43;2.70;;;29.40;47.70;;;-142.21;55.51;112049.66;5083440;28;20190;-71
2022/05/18 09:26:15;;;;;;;6.03;2.87;;;29.50;48.00;;;-142.21;52.86;112049.66;5072755;28;20651;-71
2022/05/18 09:28:53;;;;;;;2.50;2.30;;;29.60;47.30;;;-142.21;55.32;112049.66;5076749;28;20221;-71
2022/05/18 09:31:45;;;;;;;2.40;2.20;;;29.70;48.00;;;-142.21;54.52;112049.66;5092270;28;20187;-71
2022/05/18 09:34:44;;;;;;;5.23;2.40;;;29.90;47.50;;;-142.21;50.14;112049.66;5074028;28;20205;-71
2022/05/18 09:37:31;;;;;;;3.17;2.47;;;29.90;46.00;;;-142.21;50.90;112049.66;5072351;28;20211;-71
2022/05/18 09:40:06;;;;;;;3.80;2.50;;;29.90;46.40;;;-142.21;48.78;112049.66;5077707;28;20250;-72
2022/05/18 09:42:41;;;;;;;3.40;2.40;;;30.00;46.10;;;-142.21;49.87;112049.66;5088318;28;20226;-71
2022/05/18 09:45:15;;;;;;;3.23;2.40;;;30.10;46.30;;;-142.21;47.93;112049.66;5051994;28;20243;-73
2022/05/18 09:47:51;;;;;;;2.30;2.10;;;30.20;45.70;;;-142.21;50.76;112049.66;5057500;28;20191;-70
2022/05/18 09:50:19;;;;;;;3.07;2.50;;;30.40;46.50;;;-142.21;50.79;112049.66;5071304;28;20188;-72
2022/05/18 09:52:48;;;;;;;3.03;2.53;;;30.40;46.50;;;-142.21;43.60;112049.66;5079750;28;20287;-74
2022/05/18 09:55:22;;;;;;;4.53;2.60;;;30.40;44.10;;;-142.21;45.68;112049.66;5071798;28;20281;-75
2022/05/18 09:57:59;;;;;;;3.50;2.47;;;30.50;44.60;;;-142.21;42.55;112049.66;5072200;28;20239;-73
2022/05/18 10:00:29;;;;;;;4.13;2.47;;;30.50;43.50;;;-142.21;46.93;112049.66;5071422;28;20238;-70
2022/05/18 10:08:52;;;;;;;3.30;2.60;;;30.80;44.40;;;-142.21;42.93;112049.66;5072278;28;20225;-72
2022/05/18 10:11:24;;;;;;;3.97;2.73;;;30.90;43.50;;;-142.21;45.63;112049.66;5071167;28;20223;-70
2022/05/18 10:14:06;;;;;;;2.33;2.13;;;30.90;44.40;;;-142.21;42.65;112049.66;5075292;28;20235;-74
2022/05/18 10:16:42;;;;;;;2.50;2.23;;;31.00;43.00;;;-142.21;42.03;112049.66;5092417;28;20290;-72
2022/05/18 10:19:20;;;;;;;3.53;2.40;;;31.10;42.80;;;-142.21;43.76;112049.66;5076478;28;20192;-72
2022/05/18 10:21:55;;;;;;;2.73;2.53;;;31.10;43.40;;;-142.21;42.69;112049.66;5072121;28;20524;-72
2022/05/18 10:24:37;;;;;;;2.73;2.30;;;31.10;42.90;;;-142.21;42.96;112049.66;5071409;28;20247;-72
2022/05/18 10:27:11;;;;;;;3.07;2.40;;;31.20;43.00;;;-142.21;39.73;112049.66;5074048;28;20222;-72